Flight Track Log - Related Links

Times and Time Zones

All times are in EDT time to prevent confusion due to time zone crossing. See the CTA400 flight status page for this flight to view local times or setup timezone preferences in your user account.

Time Position Orientation Groundspeed Altitude Reporting Facility
EDT Latitude Longitude Course Direction KTS MPH feet Rate Location/Type
Fri 06:14:57 PM 35.1747 -101.7367 192° South 97 112 5,700  Level Albuquerque Center
Fri 06:15:58 PM 35.1478 -101.7436 192° South 98 113 6,700 976 Climbing Albuquerque Center
Fri 06:17:00 PM 35.1178 -101.7489 188° South 103 119 7,700 878 Climbing Albuquerque Center
Fri 06:18:01 PM 35.0858 -101.7550 189° South 110 127 8,500 780 Climbing Albuquerque Center
Fri 06:19:03 PM 35.0508 -101.7614 188° South 120 138 9,300 484 Climbing Albuquerque Center
Fri 06:20:05 PM 35.0028 -101.7625 181° South 140 161 9,500 146 Climbing Albuquerque Center
Fri 06:21:06 PM 34.9564 -101.7606 178° South 160 184 9,600 49 Climbing Albuquerque Center
Fri 06:22:08 PM 34.9083 -101.7542 174° South 172 198 9,600  Level Albuquerque Center
Fri 06:23:09 PM 34.8586 -101.7592 185° South 176 203 9,600  Level Albuquerque Center
Fri 06:24:11 PM 34.8089 -101.7558 177° South 179 206 9,600  Level Albuquerque Center
Fri 06:25:12 PM 34.7592 -101.7517 176° South 180 207 9,600  Level Albuquerque Center
Fri 06:26:14 PM 34.7083 -101.7478 176° South 182 209 9,600  Level Albuquerque Center
Fri 06:27:15 PM 34.6581 -101.7472 179° South 181 208 9,600  Level Albuquerque Center
Fri 06:28:17 PM 34.5992 -101.7558 187° South 179 206 9,600 -49 Level Albuquerque Center
Fri 06:29:18 PM 34.5492 -101.7547 179° South 179 206 9,500 -49 Descending Albuquerque Center
Fri 06:30:20 PM 34.4978 -101.7517 177° South 181 208 9,500 -49 Level Albuquerque Center
Fri 06:31:21 PM 34.4478 -101.7503 179° South 181 208 9,400 49 Descending Albuquerque Center
Fri 06:32:23 PM 34.3967 -101.7533 183° South 182 209 9,600 148 Climbing Albuquerque Center
Fri 06:32:42 PM 34.3733 -101.7586 191° South 182 209 9,600 111 Level Fort Worth Center
Fri 06:33:17 PM 34.3522 -101.7628 189° South 181 208 9,700 98 Climbing Fort Worth Center
Fri 06:33:43 PM 34.3228 -101.7661 185° South 178 205 9,700  Level Fort Worth Center
Fri 06:34:17 PM 34.2975 -101.7725 192° South 181 208 9,700 -100 Level Fort Worth Center
Fri 06:34:43 PM 34.2725 -101.7761 187° South 181 208 9,600 -100 Descending Fort Worth Center
Fri 06:35:17 PM 34.2494 -101.7775 183° South 181 208 9,600  Level Fort Worth Center
Fri 06:35:44 PM 34.2222 -101.7836 191° South 186 214 9,600  Level Fort Worth Center
Fri 06:36:17 PM 34.1969 -101.7875 187° South 181 208 9,600 -82 Level Fort Worth Center
Fri 06:36:57 PM 34.1614 -101.7933 188° South 184 212 9,500 -100 Descending Fort Worth Center
Fri 06:37:17 PM 34.1486 -101.7950 186° South 186 214 9,500 -400 Level Fort Worth Center
Fri 06:37:57 PM 34.1089 -101.8031 190° South 184 212 9,100 -400 Descending Fort Worth Center
Fri 06:38:17 PM 34.0919 -101.8047 185° South 186 214 9,100 -393 Level Fort Worth Center
Fri 06:38:58 PM 34.0583 -101.8131 192° South 182 209 8,700 -400 Descending Fort Worth Center
Fri 06:39:17 PM 34.0500 -101.8103 165° South 181 208 8,700 -400 Level Fort Worth Center
Fri 06:39:58 PM 34.0100 -101.8206 192° South 176 203 8,300 -600 Descending Fort Worth Center
Fri 06:40:17 PM 33.9975 -101.8200 178° South 181 208 8,100 -590 Descending Fort Worth Center
Fri 06:40:59 PM 33.9639 -101.8258 188° South 171 197 7,700 -500 Descending Fort Worth Center
Fri 06:41:17 PM 33.9556 -101.8253 177° South 181 208 7,600 -655 Descending Fort Worth Center
Fri 06:41:54 PM 33.9200 -101.8311 188° South 166 191 7,100 -600 Descending Fort Worth Center
Fri 06:42:17 PM 33.9056 -101.8303 177° South 176 203 7,000 -600 Descending Fort Worth Center
Fri 06:42:54 PM 33.8739 -101.8339 185° South 167 192 6,500 -500 Descending Fort Worth Center
Fri 06:43:17 PM 33.8617 -101.8306 167° South 176 203 6,500 -492 Level Fort Worth Center
Fri 06:43:55 PM 33.8281 -101.8314 181° South 166 191 6,000 -700 Descending Fort Worth Center
Fri 06:44:17 PM 33.8114 -101.8306 178° South 171 197 5,800 -600 Descending Fort Worth Center
Fri 06:44:55 PM 33.7822 -101.8317 182° South 164 189 5,400 -727 Descending Fort Worth Center
Fri 06:45:56 PM 33.7342 -101.8342 182° South 155 178 4,600 -738 Descending Fort Worth Center
Fri 06:46:57 PM 33.7050 -101.8328 178° South 105 121 3,900 -689 Descending Fort Worth Center
Fri 06:48:00 PM 33.6572 -101.8188 166° South  Level FlightAware Approximate
Fri 06:55:00 PM 33.6500 -101.8167 187° South  Level FlightAware Approximate
Fri 06:56:00 PM 33.6637 -101.8206 187° South  Level Estimated

Login

Don't have an account? Register now (free) for customized features, flight alerts, and more!